Terminal Aerodrome Forecast
Issued by NWS New Orleans/Baton Rouge, LA

Home | Current Version | Previous Version | Text Only | Print | Product List | Glossary On
Versions: 1 2 3 4 5 6 7 8 9 10 11 12 13 14 15 16 17 18 19 20 21 22 23 24 25 26 27 28 29 30 31
000
FTUS44 KLIX 281500 AAB
TAFNEW
TAF AMD
KNEW 281548Z 2816/2912 22008KT 1/4SM FG FEW008 OVC015
     FM281700 31007KT P6SM SHRA OVC008
     FM290000 34012KT 5SM BR OVC006=

USA.gov is the U.S. government's official web portal to all federal, state and local government web resources and services.